sensor_id;sensor_type;location;lat;lon;timestamp;P1;durP1;ratioP1;P2;durP2;ratioP2
24739;SDS011;45234;48.148;17.128;2023-06-24T00:02:14;7.30;;;5.07;;
24739;SDS011;45234;48.148;17.128;2023-06-24T00:04:41;5.47;;;4.97;;
24739;SDS011;45234;48.148;17.128;2023-06-24T00:07:08;7.45;;;5.78;;
24739;SDS011;45234;48.148;17.128;2023-06-24T00:09:35;8.13;;;5.07;;
24739;SDS011;45234;48.148;17.128;2023-06-24T00:12:02;7.07;;;5.15;;
24739;SDS011;45234;48.148;17.128;2023-06-24T00:14:29;9.20;;;5.05;;
24739;SDS011;45234;48.148;17.128;2023-06-24T00:16:57;7.15;;;4.72;;
24739;SDS011;45234;48.148;17.128;2023-06-24T00:19:25;7.47;;;5.15;;
24739;SDS011;45234;48.148;17.128;2023-06-24T00:21:53;6.13;;;4.28;;
24739;SDS011;45234;48.148;17.128;2023-06-24T00:24:25;6.45;;;4.95;;
24739;SDS011;45234;48.148;17.128;2023-06-24T00:26:52;6.72;;;3.90;;
24739;SDS011;45234;48.148;17.128;2023-06-24T00:29:19;8.43;;;3.85;;
24739;SDS011;45234;48.148;17.128;2023-06-24T00:31:46;5.43;;;3.85;;
24739;SDS011;45234;48.148;17.128;2023-06-24T00:34:13;5.78;;;3.90;;
24739;SDS011;45234;48.148;17.128;2023-06-24T00:36:42;5.75;;;3.22;;
24739;SDS011;45234;48.148;17.128;2023-06-24T00:39:09;5.78;;;3.30;;
24739;SDS011;45234;48.148;17.128;2023-06-24T00:41:36;5.70;;;3.05;;
24739;SDS011;45234;48.148;17.128;2023-06-24T00:44:04;5.35;;;3.50;;
24739;SDS011;45234;48.148;17.128;2023-06-24T00:46:31;3.53;;;3.20;;
24739;SDS011;45234;48.148;17.128;2023-06-24T00:49:00;8.20;;;2.83;;
24739;SDS011;45234;48.148;17.128;2023-06-24T00:51:29;4.55;;;2.60;;
24739;SDS011;45234;48.148;17.128;2023-06-24T00:53:57;6.30;;;3.00;;
24739;SDS011;45234;48.148;17.128;2023-06-24T00:56:26;3.50;;;2.42;;
24739;SDS011;45234;48.148;17.128;2023-06-24T00:59:00;4.55;;;2.58;;
24739;SDS011;45234;48.148;17.128;2023-06-24T01:01:29;5.00;;;2.67;;
24739;SDS011;45234;48.148;17.128;2023-06-24T01:04:01;4.38;;;2.00;;
24739;SDS011;45234;48.148;17.128;2023-06-24T01:06:30;4.15;;;2.22;;
24739;SDS011;45234;48.148;17.128;2023-06-24T01:08:58;2.72;;;2.03;;
24739;SDS011;45234;48.148;17.128;2023-06-24T01:11:29;4.20;;;2.28;;
24739;SDS011;45234;48.148;17.128;2023-06-24T01:13:58;3.72;;;2.35;;
24739;SDS011;45234;48.148;17.128;2023-06-24T01:16:29;6.80;;;2.20;;
24739;SDS011;45234;48.148;17.128;2023-06-24T01:19:08;5.57;;;2.75;;
24739;SDS011;45234;48.148;17.128;2023-06-24T01:25:02;2.30;;;2.10;;
24739;SDS011;45234;48.148;17.128;2023-06-24T01:27:52;3.83;;;1.80;;
24739;SDS011;45234;48.148;17.128;2023-06-24T01:33:26;2.53;;;1.90;;
24739;SDS011;45234;48.148;17.128;2023-06-24T01:36:02;2.80;;;1.77;;
24739;SDS011;45234;48.148;17.128;2023-06-24T01:38:36;4.35;;;1.40;;
24739;SDS011;45234;48.148;17.128;2023-06-24T01:41:08;3.50;;;2.30;;
24739;SDS011;45234;48.148;17.128;2023-06-24T01:43:37;6.03;;;2.00;;
24739;SDS011;45234;48.148;17.128;2023-06-24T01:46:07;2.50;;;1.70;;
24739;SDS011;45234;48.148;17.128;2023-06-24T01:48:38;2.17;;;1.63;;
24739;SDS011;45234;48.148;17.128;2023-06-24T01:51:18;2.40;;;1.58;;
24739;SDS011;45234;48.148;17.128;2023-06-24T01:53:52;5.15;;;1.98;;
24739;SDS011;45234;48.148;17.128;2023-06-24T01:56:24;4.05;;;1.85;;
24739;SDS011;45234;48.148;17.128;2023-06-24T01:58:55;4.35;;;1.60;;
24739;SDS011;45234;48.148;17.128;2023-06-24T02:01:24;3.15;;;1.52;;
24739;SDS011;45234;48.148;17.128;2023-06-24T02:03:52;2.40;;;1.50;;
24739;SDS011;45234;48.148;17.128;2023-06-24T02:06:21;4.13;;;1.58;;
24739;SDS011;45234;48.148;17.128;2023-06-24T02:08:51;2.53;;;1.85;;
24739;SDS011;45234;48.148;17.128;2023-06-24T02:11:21;4.93;;;1.77;;
24739;SDS011;45234;48.148;17.128;2023-06-24T02:13:50;2.95;;;1.45;;
24739;SDS011;45234;48.148;17.128;2023-06-24T02:16:20;5.35;;;1.40;;
24739;SDS011;45234;48.148;17.128;2023-06-24T02:18:49;2.72;;;1.67;;
24739;SDS011;45234;48.148;17.128;2023-06-24T02:21:18;2.85;;;1.30;;
24739;SDS011;45234;48.148;17.128;2023-06-24T02:23:49;5.03;;;1.50;;
24739;SDS011;45234;48.148;17.128;2023-06-24T02:26:20;2.80;;;1.52;;
24739;SDS011;45234;48.148;17.128;2023-06-24T02:28:48;1.80;;;1.50;;
24739;SDS011;45234;48.148;17.128;2023-06-24T02:31:16;3.55;;;1.60;;
24739;SDS011;45234;48.148;17.128;2023-06-24T02:33:44;3.50;;;1.30;;
24739;SDS011;45234;48.148;17.128;2023-06-24T02:36:18;5.00;;;1.63;;
24739;SDS011;45234;48.148;17.128;2023-06-24T02:38:46;1.38;;;1.17;;
24739;SDS011;45234;48.148;17.128;2023-06-24T02:41:15;2.90;;;1.20;;
24739;SDS011;45234;48.148;17.128;2023-06-24T02:43:43;3.28;;;1.23;;
24739;SDS011;45234;48.148;17.128;2023-06-24T02:46:10;3.58;;;1.17;;
24739;SDS011;45234;48.148;17.128;2023-06-24T02:48:42;1.80;;;1.30;;
24739;SDS011;45234;48.148;17.128;2023-06-24T02:51:11;5.28;;;1.35;;
24739;SDS011;45234;48.148;17.128;2023-06-24T02:53:41;4.30;;;1.38;;
24739;SDS011;45234;48.148;17.128;2023-06-24T02:56:11;1.63;;;1.40;;
24739;SDS011;45234;48.148;17.128;2023-06-24T02:58:44;2.67;;;1.38;;
24739;SDS011;45234;48.148;17.128;2023-06-24T03:01:18;3.60;;;1.10;;
24739;SDS011;45234;48.148;17.128;2023-06-24T03:03:55;1.52;;;1.00;;
24739;SDS011;45234;48.148;17.128;2023-06-24T03:06:25;4.18;;;1.30;;
24739;SDS011;45234;48.148;17.128;2023-06-24T03:08:58;1.73;;;1.30;;
24739;SDS011;45234;48.148;17.128;2023-06-24T03:11:26;2.42;;;1.33;;
24739;SDS011;45234;48.148;17.128;2023-06-24T03:13:57;2.25;;;1.20;;
24739;SDS011;45234;48.148;17.128;2023-06-24T03:16:34;1.20;;;1.00;;
24739;SDS011;45234;48.148;17.128;2023-06-24T03:19:11;2.00;;;0.98;;
24739;SDS011;45234;48.148;17.128;2023-06-24T03:21:38;1.70;;;0.95;;
24739;SDS011;45234;48.148;17.128;2023-06-24T03:24:09;1.25;;;0.70;;
24739;SDS011;45234;48.148;17.128;2023-06-24T03:26:54;3.10;;;1.00;;
24739;SDS011;45234;48.148;17.128;2023-06-24T03:29:29;3.60;;;0.90;;
24739;SDS011;45234;48.148;17.128;2023-06-24T03:32:03;2.30;;;0.93;;
24739;SDS011;45234;48.148;17.128;2023-06-24T03:34:31;0.85;;;0.70;;
24739;SDS011;45234;48.148;17.128;2023-06-24T03:37:02;0.90;;;0.60;;
24739;SDS011;45234;48.148;17.128;2023-06-24T03:39:33;4.60;;;1.00;;
24739;SDS011;45234;48.148;17.128;2023-06-24T03:42:00;0.60;;;0.50;;
24739;SDS011;45234;48.148;17.128;2023-06-24T03:44:28;2.20;;;0.75;;
24739;SDS011;45234;48.148;17.128;2023-06-24T03:46:56;0.77;;;0.60;;
24739;SDS011;45234;48.148;17.128;2023-06-24T03:49:23;1.20;;;0.55;;
24739;SDS011;45234;48.148;17.128;2023-06-24T03:51:50;0.80;;;0.40;;
24739;SDS011;45234;48.148;17.128;2023-06-24T03:54:18;1.75;;;0.60;;
24739;SDS011;45234;48.148;17.128;2023-06-24T03:56:46;1.40;;;0.75;;
24739;SDS011;45234;48.148;17.128;2023-06-24T03:59:13;1.38;;;0.60;;
24739;SDS011;45234;48.148;17.128;2023-06-24T04:01:40;0.70;;;0.50;;
24739;SDS011;45234;48.148;17.128;2023-06-24T04:04:07;1.42;;;0.45;;
24739;SDS011;45234;48.148;17.128;2023-06-24T04:06:34;3.08;;;0.40;;
24739;SDS011;45234;48.148;17.128;2023-06-24T04:09:01;0.52;;;0.30;;
24739;SDS011;45234;48.148;17.128;2023-06-24T04:11:29;0.50;;;0.20;;
24739;SDS011;45234;48.148;17.128;2023-06-24T04:13:59;0.73;;;0.40;;
24739;SDS011;45234;48.148;17.128;2023-06-24T04:16:26;0.20;;;0.20;;
24739;SDS011;45234;48.148;17.128;2023-06-24T04:18:52;0.57;;;0.45;;
24739;SDS011;45234;48.148;17.128;2023-06-24T04:21:21;0.40;;;0.30;;
24739;SDS011;45234;48.148;17.128;2023-06-24T04:23:49;1.20;;;0.30;;
24739;SDS011;45234;48.148;17.128;2023-06-24T04:26:16;0.20;;;0.20;;
24739;SDS011;45234;48.148;17.128;2023-06-24T04:28:43;1.05;;;0.30;;
24739;SDS011;45234;48.148;17.128;2023-06-24T04:31:10;1.90;;;0.30;;
24739;SDS011;45234;48.148;17.128;2023-06-24T04:33:37;1.35;;;0.50;;
24739;SDS011;45234;48.148;17.128;2023-06-24T04:36:04;0.98;;;0.28;;
24739;SDS011;45234;48.148;17.128;2023-06-24T04:38:31;1.67;;;0.40;;
24739;SDS011;45234;48.148;17.128;2023-06-24T04:41:00;0.95;;;0.47;;
24739;SDS011;45234;48.148;17.128;2023-06-24T04:43:27;1.13;;;0.22;;
24739;SDS011;45234;48.148;17.128;2023-06-24T04:45:54;1.85;;;0.40;;
24739;SDS011;45234;48.148;17.128;2023-06-24T04:48:24;1.38;;;0.25;;
24739;SDS011;45234;48.148;17.128;2023-06-24T04:50:52;0.90;;;0.40;;
24739;SDS011;45234;48.148;17.128;2023-06-24T04:53:21;0.30;;;0.30;;
24739;SDS011;45234;48.148;17.128;2023-06-24T04:55:48;3.30;;;0.40;;
24739;SDS011;45234;48.148;17.128;2023-06-24T04:58:15;1.67;;;0.30;;
24739;SDS011;45234;48.148;17.128;2023-06-24T05:00:42;0.50;;;0.20;;
24739;SDS011;45234;48.148;17.128;2023-06-24T05:03:09;1.25;;;0.20;;
24739;SDS011;45234;48.148;17.128;2023-06-24T05:05:36;1.75;;;0.30;;
24739;SDS011;45234;48.148;17.128;2023-06-24T05:08:04;0.90;;;0.45;;
24739;SDS011;45234;48.148;17.128;2023-06-24T05:10:31;0.65;;;0.20;;
24739;SDS011;45234;48.148;17.128;2023-06-24T05:12:57;1.00;;;0.50;;
24739;SDS011;45234;48.148;17.128;2023-06-24T05:15:27;1.23;;;0.40;;
24739;SDS011;45234;48.148;17.128;2023-06-24T05:17:54;2.92;;;0.45;;
24739;SDS011;45234;48.148;17.128;2023-06-24T05:20:21;0.88;;;0.30;;
24739;SDS011;45234;48.148;17.128;2023-06-24T05:22:48;1.40;;;0.30;;
24739;SDS011;45234;48.148;17.128;2023-06-24T05:25:16;1.38;;;0.70;;
24739;SDS011;45234;48.148;17.128;2023-06-24T05:27:44;2.45;;;0.55;;
24739;SDS011;45234;48.148;17.128;2023-06-24T05:30:11;2.90;;;0.60;;
24739;SDS011;45234;48.148;17.128;2023-06-24T05:32:40;0.85;;;0.47;;
24739;SDS011;45234;48.148;17.128;2023-06-24T05:35:07;1.08;;;0.40;;
24739;SDS011;45234;48.148;17.128;2023-06-24T05:37:34;2.90;;;0.70;;
24739;SDS011;45234;48.148;17.128;2023-06-24T05:40:01;1.77;;;0.47;;
24739;SDS011;45234;48.148;17.128;2023-06-24T05:42:33;0.50;;;0.40;;
24739;SDS011;45234;48.148;17.128;2023-06-24T05:45:00;1.02;;;0.40;;
24739;SDS011;45234;48.148;17.128;2023-06-24T05:47:30;1.63;;;0.50;;
24739;SDS011;45234;48.148;17.128;2023-06-24T05:49:58;2.15;;;0.50;;
24739;SDS011;45234;48.148;17.128;2023-06-24T05:52:25;1.98;;;0.50;;
24739;SDS011;45234;48.148;17.128;2023-06-24T05:54:54;0.55;;;0.40;;
24739;SDS011;45234;48.148;17.128;2023-06-24T05:57:21;1.50;;;0.40;;
24739;SDS011;45234;48.148;17.128;2023-06-24T05:59:51;1.50;;;0.60;;
24739;SDS011;45234;48.148;17.128;2023-06-24T06:02:18;0.70;;;0.68;;
24739;SDS011;45234;48.148;17.128;2023-06-24T06:04:45;2.30;;;0.50;;
24739;SDS011;45234;48.148;17.128;2023-06-24T06:07:13;0.88;;;0.30;;
24739;SDS011;45234;48.148;17.128;2023-06-24T06:09:42;0.73;;;0.40;;
24739;SDS011;45234;48.148;17.128;2023-06-24T06:12:09;0.80;;;0.60;;
24739;SDS011;45234;48.148;17.128;2023-06-24T06:14:38;0.47;;;0.47;;
24739;SDS011;45234;48.148;17.128;2023-06-24T06:17:05;0.93;;;0.43;;
24739;SDS011;45234;48.148;17.128;2023-06-24T06:19:32;0.73;;;0.57;;
24739;SDS011;45234;48.148;17.128;2023-06-24T06:21:59;1.48;;;0.40;;
24739;SDS011;45234;48.148;17.128;2023-06-24T06:24:26;3.50;;;0.82;;
24739;SDS011;45234;48.148;17.128;2023-06-24T06:26:53;0.70;;;0.50;;
24739;SDS011;45234;48.148;17.128;2023-06-24T06:29:20;0.50;;;0.50;;
24739;SDS011;45234;48.148;17.128;2023-06-24T06:31:47;0.88;;;0.50;;
24739;SDS011;45234;48.148;17.128;2023-06-24T06:34:14;1.33;;;0.57;;
24739;SDS011;45234;48.148;17.128;2023-06-24T06:36:41;1.35;;;0.60;;
24739;SDS011;45234;48.148;17.128;2023-06-24T06:39:08;0.55;;;0.50;;
24739;SDS011;45234;48.148;17.128;2023-06-24T06:41:35;2.20;;;0.50;;
24739;SDS011;45234;48.148;17.128;2023-06-24T06:44:02;0.60;;;0.40;;
24739;SDS011;45234;48.148;17.128;2023-06-24T06:46:29;0.60;;;0.38;;
24739;SDS011;45234;48.148;17.128;2023-06-24T06:48:56;0.73;;;0.73;;
24739;SDS011;45234;48.148;17.128;2023-06-24T06:51:26;2.05;;;0.75;;
24739;SDS011;45234;48.148;17.128;2023-06-24T06:53:53;1.63;;;0.60;;
24739;SDS011;45234;48.148;17.128;2023-06-24T06:56:24;2.17;;;0.60;;
24739;SDS011;45234;48.148;17.128;2023-06-24T06:58:51;0.50;;;0.40;;
24739;SDS011;45234;48.148;17.128;2023-06-24T07:01:21;0.88;;;0.40;;
24739;SDS011;45234;48.148;17.128;2023-06-24T07:03:49;0.93;;;0.40;;
24739;SDS011;45234;48.148;17.128;2023-06-24T07:06:20;0.80;;;0.50;;
24739;SDS011;45234;48.148;17.128;2023-06-24T07:08:47;1.02;;;0.50;;
24739;SDS011;45234;48.148;17.128;2023-06-24T07:11:14;1.48;;;0.47;;
24739;SDS011;45234;48.148;17.128;2023-06-24T07:13:41;1.95;;;0.30;;
24739;SDS011;45234;48.148;17.128;2023-06-24T07:16:08;1.48;;;0.65;;
24739;SDS011;45234;48.148;17.128;2023-06-24T07:18:35;0.50;;;0.40;;
24739;SDS011;45234;48.148;17.128;2023-06-24T07:21:02;0.70;;;0.50;;
24739;SDS011;45234;48.148;17.128;2023-06-24T07:23:29;0.80;;;0.60;;
24739;SDS011;45234;48.148;17.128;2023-06-24T07:25:56;0.73;;;0.65;;
24739;SDS011;45234;48.148;17.128;2023-06-24T07:28:26;2.03;;;0.50;;
24739;SDS011;45234;48.148;17.128;2023-06-24T07:30:53;2.28;;;0.80;;
24739;SDS011;45234;48.148;17.128;2023-06-24T07:33:20;0.77;;;0.52;;
24739;SDS011;45234;48.148;17.128;2023-06-24T07:35:47;0.77;;;0.60;;
24739;SDS011;45234;48.148;17.128;2023-06-24T07:38:14;0.50;;;0.50;;
24739;SDS011;45234;48.148;17.128;2023-06-24T07:40:41;2.60;;;0.80;;
24739;SDS011;45234;48.148;17.128;2023-06-24T07:43:08;5.03;;;0.70;;
24739;SDS011;45234;48.148;17.128;2023-06-24T07:45:35;0.88;;;0.55;;
24739;SDS011;45234;48.148;17.128;2023-06-24T07:48:02;0.63;;;0.40;;
24739;SDS011;45234;48.148;17.128;2023-06-24T07:50:30;4.20;;;0.63;;
24739;SDS011;45234;48.148;17.128;2023-06-24T07:52:58;0.88;;;0.70;;
24739;SDS011;45234;48.148;17.128;2023-06-24T07:55:25;0.70;;;0.52;;
24739;SDS011;45234;48.148;17.128;2023-06-24T07:57:51;2.28;;;0.50;;
24739;SDS011;45234;48.148;17.128;2023-06-24T08:00:18;2.33;;;0.75;;
24739;SDS011;45234;48.148;17.128;2023-06-24T08:02:45;1.35;;;0.90;;
24739;SDS011;45234;48.148;17.128;2023-06-24T08:05:12;0.85;;;0.57;;
24739;SDS011;45234;48.148;17.128;2023-06-24T08:07:39;3.28;;;0.70;;
24739;SDS011;45234;48.148;17.128;2023-06-24T08:10:06;1.05;;;0.75;;
24739;SDS011;45234;48.148;17.128;2023-06-24T08:12:34;1.02;;;0.50;;
24739;SDS011;45234;48.148;17.128;2023-06-24T08:15:01;1.63;;;0.80;;
24739;SDS011;45234;48.148;17.128;2023-06-24T08:17:32;1.42;;;0.85;;
24739;SDS011;45234;48.148;17.128;2023-06-24T08:20:01;0.85;;;0.73;;
24739;SDS011;45234;48.148;17.128;2023-06-24T08:22:30;0.75;;;0.70;;
24739;SDS011;45234;48.148;17.128;2023-06-24T08:24:58;1.55;;;1.10;;
24739;SDS011;45234;48.148;17.128;2023-06-24T08:27:25;1.05;;;0.98;;
24739;SDS011;45234;48.148;17.128;2023-06-24T08:29:52;2.45;;;1.23;;
24739;SDS011;45234;48.148;17.128;2023-06-24T08:32:20;3.85;;;1.10;;
24739;SDS011;45234;48.148;17.128;2023-06-24T08:34:47;1.70;;;1.20;;
24739;SDS011;45234;48.148;17.128;2023-06-24T08:37:14;1.25;;;0.90;;
24739;SDS011;45234;48.148;17.128;2023-06-24T08:39:41;1.17;;;1.08;;
24739;SDS011;45234;48.148;17.128;2023-06-24T08:42:09;3.13;;;1.10;;
24739;SDS011;45234;48.148;17.128;2023-06-24T08:44:36;1.35;;;1.25;;
24739;SDS011;45234;48.148;17.128;2023-06-24T08:47:03;1.23;;;1.10;;
24739;SDS011;45234;48.148;17.128;2023-06-24T08:49:30;1.40;;;1.20;;
24739;SDS011;45234;48.148;17.128;2023-06-24T08:54:34;1.50;;;1.10;;
24739;SDS011;45234;48.148;17.128;2023-06-24T08:57:03;1.58;;;1.23;;
24739;SDS011;45234;48.148;17.128;2023-06-24T08:59:34;1.65;;;1.20;;
24739;SDS011;45234;48.148;17.128;2023-06-24T09:02:03;1.23;;;1.13;;
24739;SDS011;45234;48.148;17.128;2023-06-24T09:04:30;2.47;;;1.30;;
24739;SDS011;45234;48.148;17.128;2023-06-24T09:06:57;2.20;;;1.20;;
24739;SDS011;45234;48.148;17.128;2023-06-24T09:09:24;2.22;;;1.38;;
24739;SDS011;45234;48.148;17.128;2023-06-24T09:11:53;3.05;;;1.05;;
24739;SDS011;45234;48.148;17.128;2023-06-24T09:14:22;2.10;;;1.25;;
24739;SDS011;45234;48.148;17.128;2023-06-24T09:16:59;1.50;;;1.40;;
24739;SDS011;45234;48.148;17.128;2023-06-24T09:19:28;2.05;;;1.40;;
24739;SDS011;45234;48.148;17.128;2023-06-24T09:21:56;5.40;;;1.10;;
24739;SDS011;45234;48.148;17.128;2023-06-24T09:24:33;1.25;;;1.00;;
24739;SDS011;45234;48.148;17.128;2023-06-24T09:27:01;2.97;;;0.93;;
24739;SDS011;45234;48.148;17.128;2023-06-24T09:29:31;2.45;;;1.00;;
24739;SDS011;45234;48.148;17.128;2023-06-24T09:31:59;4.97;;;0.95;;
24739;SDS011;45234;48.148;17.128;2023-06-24T09:34:30;2.75;;;1.17;;
24739;SDS011;45234;48.148;17.128;2023-06-24T09:36:58;2.17;;;0.90;;
24739;SDS011;45234;48.148;17.128;2023-06-24T09:39:26;1.15;;;1.05;;
24739;SDS011;45234;48.148;17.128;2023-06-24T09:41:57;2.15;;;1.10;;
24739;SDS011;45234;48.148;17.128;2023-06-24T09:44:25;1.20;;;1.00;;
24739;SDS011;45234;48.148;17.128;2023-06-24T09:46:53;1.25;;;0.90;;
24739;SDS011;45234;48.148;17.128;2023-06-24T09:49:22;3.90;;;1.00;;
24739;SDS011;45234;48.148;17.128;2023-06-24T09:51:49;1.05;;;0.93;;
24739;SDS011;45234;48.148;17.128;2023-06-24T09:54:20;0.80;;;0.60;;
24739;SDS011;45234;48.148;17.128;2023-06-24T09:56:50;2.63;;;0.82;;
24739;SDS011;45234;48.148;17.128;2023-06-24T09:59:19;0.85;;;0.60;;
24739;SDS011;45234;48.148;17.128;2023-06-24T10:01:51;1.92;;;0.50;;
24739;SDS011;45234;48.148;17.128;2023-06-24T10:04:20;0.75;;;0.55;;
24739;SDS011;45234;48.148;17.128;2023-06-24T10:06:48;0.70;;;0.40;;
24739;SDS011;45234;48.148;17.128;2023-06-24T10:09:15;1.58;;;0.50;;
24739;SDS011;45234;48.148;17.128;2023-06-24T10:11:46;3.15;;;0.65;;
24739;SDS011;45234;48.148;17.128;2023-06-24T10:14:14;2.13;;;0.60;;
24739;SDS011;45234;48.148;17.128;2023-06-24T10:16:41;3.67;;;1.25;;
24739;SDS011;45234;48.148;17.128;2023-06-24T10:19:13;4.03;;;0.63;;
24739;SDS011;45234;48.148;17.128;2023-06-24T10:21:55;2.20;;;1.33;;
24739;SDS011;45234;48.148;17.128;2023-06-24T10:24:29;1.85;;;1.35;;
24739;SDS011;45234;48.148;17.128;2023-06-24T10:27:05;1.30;;;0.90;;
24739;SDS011;45234;48.148;17.128;2023-06-24T10:29:45;5.22;;;1.00;;
24739;SDS011;45234;48.148;17.128;2023-06-24T10:32:14;1.15;;;0.90;;
24739;SDS011;45234;48.148;17.128;2023-06-24T10:34:42;6.20;;;1.00;;
24739;SDS011;45234;48.148;17.128;2023-06-24T10:39:51;2.20;;;1.50;;
24739;SDS011;45234;48.148;17.128;2023-06-24T10:42:38;1.33;;;1.23;;
24739;SDS011;45234;48.148;17.128;2023-06-24T10:47:40;2.70;;;1.10;;
24739;SDS011;45234;48.148;17.128;2023-06-24T10:50:09;1.55;;;1.00;;
24739;SDS011;45234;48.148;17.128;2023-06-24T10:52:45;1.42;;;1.00;;
24739;SDS011;45234;48.148;17.128;2023-06-24T10:55:14;1.00;;;0.90;;
24739;SDS011;45234;48.148;17.128;2023-06-24T10:57:46;2.63;;;1.10;;
24739;SDS011;45234;48.148;17.128;2023-06-24T11:00:16;2.70;;;1.38;;
24739;SDS011;45234;48.148;17.128;2023-06-24T11:02:43;2.10;;;1.30;;
24739;SDS011;45234;48.148;17.128;2023-06-24T11:05:11;1.20;;;0.98;;
24739;SDS011;45234;48.148;17.128;2023-06-24T11:07:38;0.90;;;0.75;;
24739;SDS011;45234;48.148;17.128;2023-06-24T11:10:09;1.40;;;1.05;;
24739;SDS011;45234;48.148;17.128;2023-06-24T11:12:39;2.60;;;1.23;;
24739;SDS011;45234;48.148;17.128;2023-06-24T11:15:11;1.00;;;0.90;;
24739;SDS011;45234;48.148;17.128;2023-06-24T11:17:39;1.48;;;1.00;;
24739;SDS011;45234;48.148;17.128;2023-06-24T11:20:13;4.55;;;1.20;;
24739;SDS011;45234;48.148;17.128;2023-06-24T11:22:41;2.35;;;1.10;;
24739;SDS011;45234;48.148;17.128;2023-06-24T11:25:20;2.92;;;1.13;;
24739;SDS011;45234;48.148;17.128;2023-06-24T11:27:49;2.00;;;1.30;;
24739;SDS011;45234;48.148;17.128;2023-06-24T11:30:20;4.43;;;1.30;;
24739;SDS011;45234;48.148;17.128;2023-06-24T11:32:47;1.83;;;1.13;;
24739;SDS011;45234;48.148;17.128;2023-06-24T11:35:16;1.42;;;1.20;;
24739;SDS011;45234;48.148;17.128;2023-06-24T11:37:44;3.03;;;1.52;;
24739;SDS011;45234;48.148;17.128;2023-06-24T11:40:12;1.85;;;1.50;;
24739;SDS011;45234;48.148;17.128;2023-06-24T11:42:45;2.63;;;1.10;;
24739;SDS011;45234;48.148;17.128;2023-06-24T11:45:14;2.38;;;1.30;;
24739;SDS011;45234;48.148;17.128;2023-06-24T11:47:45;1.08;;;0.93;;
24739;SDS011;45234;48.148;17.128;2023-06-24T11:50:12;2.70;;;1.40;;
24739;SDS011;45234;48.148;17.128;2023-06-24T11:52:43;1.88;;;1.40;;
24739;SDS011;45234;48.148;17.128;2023-06-24T11:55:17;4.15;;;1.30;;
24739;SDS011;45234;48.148;17.128;2023-06-24T12:00:22;1.55;;;1.00;;
24739;SDS011;45234;48.148;17.128;2023-06-24T12:02:56;1.05;;;0.90;;
24739;SDS011;45234;48.148;17.128;2023-06-24T12:05:28;1.20;;;1.02;;
24739;SDS011;45234;48.148;17.128;2023-06-24T12:08:06;1.10;;;1.00;;
24739;SDS011;45234;48.148;17.128;2023-06-24T12:10:36;1.52;;;0.90;;
24739;SDS011;45234;48.148;17.128;2023-06-24T12:13:05;3.78;;;1.23;;
24739;SDS011;45234;48.148;17.128;2023-06-24T12:15:35;1.63;;;1.30;;
24739;SDS011;45234;48.148;17.128;2023-06-24T12:18:02;1.55;;;1.05;;
24739;SDS011;45234;48.148;17.128;2023-06-24T12:20:29;1.30;;;0.90;;
24739;SDS011;45234;48.148;17.128;2023-06-24T12:23:02;2.90;;;0.80;;
24739;SDS011;45234;48.148;17.128;2023-06-24T12:25:29;1.98;;;0.70;;
24739;SDS011;45234;48.148;17.128;2023-06-24T12:27:57;1.75;;;0.80;;
24739;SDS011;45234;48.148;17.128;2023-06-24T12:30:26;1.30;;;0.80;;
24739;SDS011;45234;48.148;17.128;2023-06-24T12:32:53;2.10;;;1.00;;
24739;SDS011;45234;48.148;17.128;2023-06-24T12:35:21;1.98;;;0.70;;
24739;SDS011;45234;48.148;17.128;2023-06-24T12:37:52;2.47;;;0.85;;
24739;SDS011;45234;48.148;17.128;2023-06-24T12:40:19;0.98;;;0.85;;
24739;SDS011;45234;48.148;17.128;2023-06-24T12:42:46;2.13;;;1.45;;
24739;SDS011;45234;48.148;17.128;2023-06-24T12:45:13;1.10;;;0.80;;
24739;SDS011;45234;48.148;17.128;2023-06-24T12:47:40;2.08;;;0.93;;
24739;SDS011;45234;48.148;17.128;2023-06-24T12:50:08;2.70;;;0.63;;
24739;SDS011;45234;48.148;17.128;2023-06-24T12:52:35;2.40;;;1.00;;
24739;SDS011;45234;48.148;17.128;2023-06-24T12:55:04;2.65;;;1.20;;
24739;SDS011;45234;48.148;17.128;2023-06-24T12:57:33;1.67;;;1.17;;
24739;SDS011;45234;48.148;17.128;2023-06-24T13:00:00;1.80;;;1.05;;
24739;SDS011;45234;48.148;17.128;2023-06-24T13:02:31;1.00;;;0.75;;
24739;SDS011;45234;48.148;17.128;2023-06-24T13:04:59;1.13;;;1.02;;
24739;SDS011;45234;48.148;17.128;2023-06-24T13:07:26;2.78;;;1.13;;
24739;SDS011;45234;48.148;17.128;2023-06-24T13:09:53;1.15;;;0.98;;
24739;SDS011;45234;48.148;17.128;2023-06-24T13:12:20;2.08;;;1.60;;
24739;SDS011;45234;48.148;17.128;2023-06-24T13:14:47;2.00;;;1.30;;
24739;SDS011;45234;48.148;17.128;2023-06-24T13:17:14;1.80;;;1.00;;
24739;SDS011;45234;48.148;17.128;2023-06-24T13:19:41;1.67;;;1.10;;
24739;SDS011;45234;48.148;17.128;2023-06-24T13:22:07;1.65;;;1.40;;
24739;SDS011;45234;48.148;17.128;2023-06-24T13:24:35;2.10;;;1.02;;
24739;SDS011;45234;48.148;17.128;2023-06-24T13:27:02;1.75;;;1.27;;
24739;SDS011;45234;48.148;17.128;2023-06-24T13:29:29;1.38;;;1.23;;
24739;SDS011;45234;48.148;17.128;2023-06-24T13:31:57;2.25;;;1.27;;
24739;SDS011;45234;48.148;17.128;2023-06-24T13:34:27;5.18;;;1.40;;
24739;SDS011;45234;48.148;17.128;2023-06-24T13:36:54;3.55;;;1.48;;
24739;SDS011;45234;48.148;17.128;2023-06-24T13:39:21;4.03;;;1.45;;
24739;SDS011;45234;48.148;17.128;2023-06-24T13:41:49;2.22;;;1.20;;
24739;SDS011;45234;48.148;17.128;2023-06-24T13:44:18;2.42;;;1.30;;
24739;SDS011;45234;48.148;17.128;2023-06-24T13:46:45;4.25;;;1.98;;
24739;SDS011;45234;48.148;17.128;2023-06-24T13:49:12;4.60;;;1.80;;
24739;SDS011;45234;48.148;17.128;2023-06-24T13:51:39;6.00;;;1.98;;
24739;SDS011;45234;48.148;17.128;2023-06-24T13:54:08;2.08;;;1.88;;
24739;SDS011;45234;48.148;17.128;2023-06-24T13:56:35;2.90;;;1.73;;
24739;SDS011;45234;48.148;17.128;2023-06-24T13:59:02;3.60;;;1.65;;
24739;SDS011;45234;48.148;17.128;2023-06-24T14:01:29;4.05;;;2.42;;
24739;SDS011;45234;48.148;17.128;2023-06-24T14:03:57;5.13;;;1.90;;
24739;SDS011;45234;48.148;17.128;2023-06-24T14:06:24;2.33;;;2.10;;
24739;SDS011;45234;48.148;17.128;2023-06-24T14:08:51;2.30;;;2.00;;
24739;SDS011;45234;48.148;17.128;2023-06-24T14:11:19;5.72;;;2.15;;
24739;SDS011;45234;48.148;17.128;2023-06-24T14:13:46;2.83;;;2.00;;
24739;SDS011;45234;48.148;17.128;2023-06-24T14:16:13;8.73;;;2.47;;
24739;SDS011;45234;48.148;17.128;2023-06-24T14:18:43;3.50;;;2.10;;
24739;SDS011;45234;48.148;17.128;2023-06-24T14:21:10;3.00;;;2.08;;
24739;SDS011;45234;48.148;17.128;2023-06-24T14:23:37;7.60;;;2.30;;
24739;SDS011;45234;48.148;17.128;2023-06-24T14:26:05;3.50;;;2.47;;
24739;SDS011;45234;48.148;17.128;2023-06-24T14:28:33;1.92;;;1.73;;
24739;SDS011;45234;48.148;17.128;2023-06-24T14:31:00;2.88;;;2.13;;
24739;SDS011;45234;48.148;17.128;2023-06-24T14:33:27;2.30;;;1.80;;
24739;SDS011;45234;48.148;17.128;2023-06-24T14:35:57;2.22;;;2.03;;
24739;SDS011;45234;48.148;17.128;2023-06-24T14:38:25;3.10;;;2.00;;
24739;SDS011;45234;48.148;17.128;2023-06-24T14:40:54;3.97;;;1.80;;
24739;SDS011;45234;48.148;17.128;2023-06-24T14:43:23;4.85;;;1.92;;
24739;SDS011;45234;48.148;17.128;2023-06-24T14:45:50;4.05;;;1.90;;
24739;SDS011;45234;48.148;17.128;2023-06-24T14:48:17;2.08;;;1.85;;
24739;SDS011;45234;48.148;17.128;2023-06-24T14:50:44;2.58;;;1.92;;
24739;SDS011;45234;48.148;17.128;2023-06-24T14:53:11;2.47;;;1.83;;
24739;SDS011;45234;48.148;17.128;2023-06-24T14:55:38;5.80;;;2.60;;
24739;SDS011;45234;48.148;17.128;2023-06-24T14:58:05;7.88;;;2.13;;
24739;SDS011;45234;48.148;17.128;2023-06-24T15:00:35;3.42;;;2.05;;